Terminal Aerodrome Forecast
Issued by NWS Jackson, KY

Home | Current Version | Previous Version | Text Only | Print | Product List | Glossary On
Versions: 1 2 3 4 5 6 7 8 9 10 11 12 13
529
FTUS43 KJKL 271120
TAFLOZ
TAF
KLOZ 271120Z 2712/2812 19008KT P6SM -SHRA OVC060
     FM271300 20011KT P6SM OVC035
     FM271800 23010KT P6SM BKN040
     FM272200 26010KT P6SM BKN090
     FM280000 26007KT P6SM SCT200
     FM281100 VRB03KT P6SM FEW120=

USA.gov is the U.S. government's official web portal to all federal, state and local government web resources and services.